sensor_id;sensor_type;location;lat;lon;timestamp;temperature;humidity
17815;DHT22;9031;50.974;11.330;2023-06-01T00:01:31;11.60;99.90
17815;DHT22;9031;50.974;11.330;2023-06-01T00:03:59;11.30;99.90
17815;DHT22;9031;50.974;11.330;2023-06-01T00:06:25;11.00;99.90
17815;DHT22;9031;50.974;11.330;2023-06-01T00:08:54;10.90;99.90
17815;DHT22;9031;50.974;11.330;2023-06-01T00:11:20;11.10;99.90
17815;DHT22;9031;50.974;11.330;2023-06-01T00:13:47;11.20;99.90
17815;DHT22;9031;50.974;11.330;2023-06-01T00:16:13;11.00;99.90
17815;DHT22;9031;50.974;11.330;2023-06-01T00:18:39;11.00;99.90
17815;DHT22;9031;50.974;11.330;2023-06-01T00:21:05;11.00;99.90
17815;DHT22;9031;50.974;11.330;2023-06-01T00:23:31;11.10;99.90
17815;DHT22;9031;50.974;11.330;2023-06-01T00:25:57;11.00;99.90
17815;DHT22;9031;50.974;11.330;2023-06-01T00:28:22;10.90;99.90
17815;DHT22;9031;50.974;11.330;2023-06-01T00:30:48;10.90;99.90
17815;DHT22;9031;50.974;11.330;2023-06-01T00:33:13;11.00;99.90
17815;DHT22;9031;50.974;11.330;2023-06-01T00:35:39;10.90;99.90
17815;DHT22;9031;50.974;11.330;2023-06-01T00:38:05;10.70;99.90
17815;DHT22;9031;50.974;11.330;2023-06-01T00:40:33;10.80;99.90
17815;DHT22;9031;50.974;11.330;2023-06-01T00:42:58;10.90;99.90
17815;DHT22;9031;50.974;11.330;2023-06-01T00:45:24;11.00;99.90
17815;DHT22;9031;50.974;11.330;2023-06-01T00:47:50;11.00;99.90
17815;DHT22;9031;50.974;11.330;2023-06-01T00:50:15;11.00;99.90
17815;DHT22;9031;50.974;11.330;2023-06-01T00:52:42;10.90;99.90
17815;DHT22;9031;50.974;11.330;2023-06-01T00:55:09;10.90;99.90
17815;DHT22;9031;50.974;11.330;2023-06-01T00:57:35;10.70;99.90
17815;DHT22;9031;50.974;11.330;2023-06-01T01:00:05;10.60;99.90
17815;DHT22;9031;50.974;11.330;2023-06-01T01:02:39;10.50;99.90
17815;DHT22;9031;50.974;11.330;2023-06-01T01:05:09;10.50;99.90
17815;DHT22;9031;50.974;11.330;2023-06-01T01:11:03;10.30;99.90
17815;DHT22;9031;50.974;11.330;2023-06-01T01:13:42;10.40;99.90
17815;DHT22;9031;50.974;11.330;2023-06-01T01:16:24;10.10;99.90
17815;DHT22;9031;50.974;11.330;2023-06-01T01:18:59;10.00;99.90
17815;DHT22;9031;50.974;11.330;2023-06-01T01:21:29;10.20;99.90
17815;DHT22;9031;50.974;11.330;2023-06-01T01:26:47;10.30;99.90
17815;DHT22;9031;50.974;11.330;2023-06-01T01:29:19;10.50;99.90
17815;DHT22;9031;50.974;11.330;2023-06-01T01:31:49;10.40;99.90
17815;DHT22;9031;50.974;11.330;2023-06-01T01:34:17;10.50;99.90
17815;DHT22;9031;50.974;11.330;2023-06-01T01:36:43;10.30;99.90
17815;DHT22;9031;50.974;11.330;2023-06-01T01:39:09;10.10;99.90
17815;DHT22;9031;50.974;11.330;2023-06-01T01:41:34;10.10;99.90
17815;DHT22;9031;50.974;11.330;2023-06-01T01:44:00;10.30;99.90
17815;DHT22;9031;50.974;11.330;2023-06-01T01:46:47;10.20;99.90
17815;DHT22;9031;50.974;11.330;2023-06-01T01:49:18;10.30;99.90
17815;DHT22;9031;50.974;11.330;2023-06-01T01:54:29;9.90;99.90
17815;DHT22;9031;50.974;11.330;2023-06-01T01:56:58;10.10;99.90
17815;DHT22;9031;50.974;11.330;2023-06-01T01:59:24;10.20;99.90
17815;DHT22;9031;50.974;11.330;2023-06-01T02:01:52;9.90;99.90
17815;DHT22;9031;50.974;11.330;2023-06-01T02:04:18;10.10;99.90
17815;DHT22;9031;50.974;11.330;2023-06-01T02:06:43;10.40;99.90
17815;DHT22;9031;50.974;11.330;2023-06-01T02:09:09;10.50;99.90
17815;DHT22;9031;50.974;11.330;2023-06-01T02:11:35;10.60;99.90
17815;DHT22;9031;50.974;11.330;2023-06-01T02:14:01;10.20;99.90
17815;DHT22;9031;50.974;11.330;2023-06-01T02:16:26;10.00;99.90
17815;DHT22;9031;50.974;11.330;2023-06-01T02:18:52;10.10;99.90
17815;DHT22;9031;50.974;11.330;2023-06-01T02:21:18;10.30;99.90
17815;DHT22;9031;50.974;11.330;2023-06-01T02:23:44;10.50;99.90
17815;DHT22;9031;50.974;11.330;2023-06-01T02:26:10;10.60;99.90
17815;DHT22;9031;50.974;11.330;2023-06-01T02:28:37;10.40;99.90
17815;DHT22;9031;50.974;11.330;2023-06-01T02:31:03;10.10;99.90
17815;DHT22;9031;50.974;11.330;2023-06-01T02:33:29;10.10;99.90
17815;DHT22;9031;50.974;11.330;2023-06-01T02:35:55;9.90;99.90
17815;DHT22;9031;50.974;11.330;2023-06-01T02:38:20;9.70;99.90
17815;DHT22;9031;50.974;11.330;2023-06-01T02:40:46;9.50;99.90
17815;DHT22;9031;50.974;11.330;2023-06-01T02:43:11;9.40;99.90
17815;DHT22;9031;50.974;11.330;2023-06-01T02:45:37;9.30;99.90
17815;DHT22;9031;50.974;11.330;2023-06-01T02:48:03;9.20;99.90
17815;DHT22;9031;50.974;11.330;2023-06-01T02:50:29;9.10;99.90
17815;DHT22;9031;50.974;11.330;2023-06-01T02:52:55;9.00;99.90
17815;DHT22;9031;50.974;11.330;2023-06-01T02:55:20;9.10;99.90
17815;DHT22;9031;50.974;11.330;2023-06-01T02:57:46;9.00;99.90
17815;DHT22;9031;50.974;11.330;2023-06-01T03:00:12;9.00;99.90
17815;DHT22;9031;50.974;11.330;2023-06-01T03:02:44;9.00;99.90
17815;DHT22;9031;50.974;11.330;2023-06-01T03:05:11;9.00;99.90
17815;DHT22;9031;50.974;11.330;2023-06-01T03:07:40;9.00;99.90
17815;DHT22;9031;50.974;11.330;2023-06-01T03:10:06;9.10;99.90
17815;DHT22;9031;50.974;11.330;2023-06-01T03:12:32;9.00;99.90
17815;DHT22;9031;50.974;11.330;2023-06-01T03:14:58;8.90;99.90
17815;DHT22;9031;50.974;11.330;2023-06-01T03:17:23;9.00;99.90
17815;DHT22;9031;50.974;11.330;2023-06-01T03:19:49;9.10;99.90
17815;DHT22;9031;50.974;11.330;2023-06-01T03:22:14;8.90;99.90
17815;DHT22;9031;50.974;11.330;2023-06-01T03:24:40;8.80;99.90
17815;DHT22;9031;50.974;11.330;2023-06-01T03:27:07;8.80;99.90
17815;DHT22;9031;50.974;11.330;2023-06-01T03:29:32;8.80;99.90
17815;DHT22;9031;50.974;11.330;2023-06-01T03:31:58;8.80;99.90
17815;DHT22;9031;50.974;11.330;2023-06-01T03:34:24;8.90;99.90
17815;DHT22;9031;50.974;11.330;2023-06-01T03:36:50;8.90;99.90
17815;DHT22;9031;50.974;11.330;2023-06-01T03:39:15;8.70;99.90
17815;DHT22;9031;50.974;11.330;2023-06-01T03:41:42;8.70;99.90
17815;DHT22;9031;50.974;11.330;2023-06-01T03:44:09;8.70;99.90
17815;DHT22;9031;50.974;11.330;2023-06-01T03:46:35;8.70;99.90
17815;DHT22;9031;50.974;11.330;2023-06-01T03:49:00;8.70;99.90
17815;DHT22;9031;50.974;11.330;2023-06-01T03:51:26;8.70;99.90
17815;DHT22;9031;50.974;11.330;2023-06-01T03:53:52;8.70;99.90
17815;DHT22;9031;50.974;11.330;2023-06-01T03:56:17;8.70;99.90
17815;DHT22;9031;50.974;11.330;2023-06-01T03:58:44;8.70;99.90
17815;DHT22;9031;50.974;11.330;2023-06-01T04:01:11;8.70;99.90
17815;DHT22;9031;50.974;11.330;2023-06-01T04:03:39;8.70;99.90
17815;DHT22;9031;50.974;11.330;2023-06-01T04:06:04;8.80;99.90
17815;DHT22;9031;50.974;11.330;2023-06-01T04:08:37;9.00;99.90
17815;DHT22;9031;50.974;11.330;2023-06-01T04:11:07;9.00;99.90
17815;DHT22;9031;50.974;11.330;2023-06-01T04:13:33;9.00;99.90
17815;DHT22;9031;50.974;11.330;2023-06-01T04:15:58;9.10;99.90
17815;DHT22;9031;50.974;11.330;2023-06-01T04:18:23;9.30;99.90
17815;DHT22;9031;50.974;11.330;2023-06-01T04:20:49;9.30;99.90
17815;DHT22;9031;50.974;11.330;2023-06-01T04:23:15;9.30;99.90
17815;DHT22;9031;50.974;11.330;2023-06-01T04:25:41;9.40;99.90
17815;DHT22;9031;50.974;11.330;2023-06-01T04:28:09;9.40;99.90
17815;DHT22;9031;50.974;11.330;2023-06-01T04:30:35;9.50;99.90
17815;DHT22;9031;50.974;11.330;2023-06-01T04:33:01;9.70;99.90
17815;DHT22;9031;50.974;11.330;2023-06-01T04:35:27;9.70;99.90
17815;DHT22;9031;50.974;11.330;2023-06-01T04:37:52;9.80;99.90
17815;DHT22;9031;50.974;11.330;2023-06-01T04:40:18;9.80;99.90
17815;DHT22;9031;50.974;11.330;2023-06-01T04:42:44;9.80;99.90
17815;DHT22;9031;50.974;11.330;2023-06-01T04:45:16;9.90;99.90
17815;DHT22;9031;50.974;11.330;2023-06-01T04:47:42;10.00;99.90
17815;DHT22;9031;50.974;11.330;2023-06-01T04:50:11;10.10;99.90
17815;DHT22;9031;50.974;11.330;2023-06-01T04:52:40;10.30;99.90
17815;DHT22;9031;50.974;11.330;2023-06-01T04:55:06;10.40;99.90
17815;DHT22;9031;50.974;11.330;2023-06-01T04:57:33;10.50;99.90
17815;DHT22;9031;50.974;11.330;2023-06-01T04:59:59;10.70;99.90
17815;DHT22;9031;50.974;11.330;2023-06-01T05:02:26;11.00;99.90
17815;DHT22;9031;50.974;11.330;2023-06-01T05:04:52;11.00;99.90
17815;DHT22;9031;50.974;11.330;2023-06-01T05:07:17;11.10;99.90
17815;DHT22;9031;50.974;11.330;2023-06-01T05:09:43;11.10;99.90
17815;DHT22;9031;50.974;11.330;2023-06-01T05:12:08;11.30;99.90
17815;DHT22;9031;50.974;11.330;2023-06-01T05:14:34;11.40;99.90
17815;DHT22;9031;50.974;11.330;2023-06-01T05:17:00;11.40;99.90
17815;DHT22;9031;50.974;11.330;2023-06-01T05:19:25;11.70;99.90
17815;DHT22;9031;50.974;11.330;2023-06-01T05:21:51;11.80;99.90
17815;DHT22;9031;50.974;11.330;2023-06-01T05:24:17;11.90;99.90
17815;DHT22;9031;50.974;11.330;2023-06-01T05:26:43;12.10;99.90
17815;DHT22;9031;50.974;11.330;2023-06-01T05:29:08;12.40;99.90
17815;DHT22;9031;50.974;11.330;2023-06-01T05:31:34;12.70;99.90
17815;DHT22;9031;50.974;11.330;2023-06-01T05:34:00;12.90;99.90
17815;DHT22;9031;50.974;11.330;2023-06-01T05:36:25;13.00;99.90
17815;DHT22;9031;50.974;11.330;2023-06-01T05:38:51;13.20;99.90
17815;DHT22;9031;50.974;11.330;2023-06-01T05:41:16;13.40;99.90
17815;DHT22;9031;50.974;11.330;2023-06-01T05:43:42;13.80;99.90
17815;DHT22;9031;50.974;11.330;2023-06-01T05:46:07;14.10;99.90
17815;DHT22;9031;50.974;11.330;2023-06-01T05:48:33;14.30;99.90
17815;DHT22;9031;50.974;11.330;2023-06-01T05:50:59;14.40;99.90
17815;DHT22;9031;50.974;11.330;2023-06-01T05:53:24;14.60;99.90
17815;DHT22;9031;50.974;11.330;2023-06-01T05:55:53;14.60;99.90
17815;DHT22;9031;50.974;11.330;2023-06-01T05:58:19;14.80;99.90
17815;DHT22;9031;50.974;11.330;2023-06-01T06:00:44;15.10;99.90
17815;DHT22;9031;50.974;11.330;2023-06-01T06:03:10;15.40;99.90
17815;DHT22;9031;50.974;11.330;2023-06-01T06:05:36;15.50;99.90
17815;DHT22;9031;50.974;11.330;2023-06-01T06:08:01;15.80;99.90
17815;DHT22;9031;50.974;11.330;2023-06-01T06:10:27;16.00;99.90
17815;DHT22;9031;50.974;11.330;2023-06-01T06:12:53;16.30;99.90
17815;DHT22;9031;50.974;11.330;2023-06-01T06:15:18;16.40;99.90
17815;DHT22;9031;50.974;11.330;2023-06-01T06:17:44;16.60;99.90
17815;DHT22;9031;50.974;11.330;2023-06-01T06:20:10;16.70;98.90
17815;DHT22;9031;50.974;11.330;2023-06-01T06:22:36;16.80;98.20
17815;DHT22;9031;50.974;11.330;2023-06-01T06:25:02;17.10;97.80
17815;DHT22;9031;50.974;11.330;2023-06-01T06:27:27;17.20;97.50
17815;DHT22;9031;50.974;11.330;2023-06-01T06:29:53;17.30;97.50
17815;DHT22;9031;50.974;11.330;2023-06-01T06:32:19;17.30;97.30
17815;DHT22;9031;50.974;11.330;2023-06-01T06:34:45;17.30;97.70
17815;DHT22;9031;50.974;11.330;2023-06-01T06:37:11;17.30;98.10
17815;DHT22;9031;50.974;11.330;2023-06-01T06:39:37;17.50;97.90
17815;DHT22;9031;50.974;11.330;2023-06-01T06:42:03;17.70;97.70
17815;DHT22;9031;50.974;11.330;2023-06-01T06:44:29;17.70;97.50
17815;DHT22;9031;50.974;11.330;2023-06-01T06:46:54;17.90;97.50
17815;DHT22;9031;50.974;11.330;2023-06-01T06:49:20;18.00;96.50
17815;DHT22;9031;50.974;11.330;2023-06-01T06:51:46;18.00;97.10
17815;DHT22;9031;50.974;11.330;2023-06-01T06:54:12;18.30;97.00
17815;DHT22;9031;50.974;11.330;2023-06-01T06:56:37;18.50;96.50
17815;DHT22;9031;50.974;11.330;2023-06-01T06:59:03;18.40;96.70
17815;DHT22;9031;50.974;11.330;2023-06-01T07:01:28;18.60;96.70
17815;DHT22;9031;50.974;11.330;2023-06-01T07:03:54;18.70;96.70
17815;DHT22;9031;50.974;11.330;2023-06-01T07:06:21;19.00;95.80
17815;DHT22;9031;50.974;11.330;2023-06-01T07:08:48;19.10;95.60
17815;DHT22;9031;50.974;11.330;2023-06-01T07:11:13;19.00;95.80
17815;DHT22;9031;50.974;11.330;2023-06-01T07:13:39;19.00;95.90
17815;DHT22;9031;50.974;11.330;2023-06-01T07:16:05;19.10;96.00
17815;DHT22;9031;50.974;11.330;2023-06-01T07:18:30;19.20;96.10
17815;DHT22;9031;50.974;11.330;2023-06-01T07:20:57;19.50;95.30
17815;DHT22;9031;50.974;11.330;2023-06-01T07:23:23;19.60;95.10
17815;DHT22;9031;50.974;11.330;2023-06-01T07:25:48;19.80;95.00
17815;DHT22;9031;50.974;11.330;2023-06-01T07:28:14;19.90;94.60
17815;DHT22;9031;50.974;11.330;2023-06-01T07:30:40;20.10;94.30
17815;DHT22;9031;50.974;11.330;2023-06-01T07:33:06;20.10;94.30
17815;DHT22;9031;50.974;11.330;2023-06-01T07:35:31;20.10;94.70
17815;DHT22;9031;50.974;11.330;2023-06-01T07:37:58;20.30;94.50
17815;DHT22;9031;50.974;11.330;2023-06-01T07:40:24;20.60;94.20
17815;DHT22;9031;50.974;11.330;2023-06-01T07:42:49;20.80;93.70
17815;DHT22;9031;50.974;11.330;2023-06-01T07:45:15;20.70;93.70
17815;DHT22;9031;50.974;11.330;2023-06-01T07:47:40;20.90;93.80
17815;DHT22;9031;50.974;11.330;2023-06-01T07:50:06;21.00;93.40
17815;DHT22;9031;50.974;11.330;2023-06-01T07:52:32;21.00;93.40
17815;DHT22;9031;50.974;11.330;2023-06-01T07:54:58;21.20;93.10
17815;DHT22;9031;50.974;11.330;2023-06-01T07:57:23;21.40;92.90
17815;DHT22;9031;50.974;11.330;2023-06-01T07:59:49;21.70;92.60
17815;DHT22;9031;50.974;11.330;2023-06-01T08:02:15;22.00;92.20
17815;DHT22;9031;50.974;11.330;2023-06-01T08:04:41;22.10;91.30
17815;DHT22;9031;50.974;11.330;2023-06-01T08:07:06;21.70;91.90
17815;DHT22;9031;50.974;11.330;2023-06-01T08:09:32;21.90;92.10
17815;DHT22;9031;50.974;11.330;2023-06-01T08:11:58;22.10;91.40
17815;DHT22;9031;50.974;11.330;2023-06-01T08:14:24;22.10;91.60
17815;DHT22;9031;50.974;11.330;2023-06-01T08:16:49;22.30;91.50
17815;DHT22;9031;50.974;11.330;2023-06-01T08:19:16;22.20;91.50
17815;DHT22;9031;50.974;11.330;2023-06-01T08:21:42;22.30;92.00
17815;DHT22;9031;50.974;11.330;2023-06-01T08:24:08;22.80;91.20
17815;DHT22;9031;50.974;11.330;2023-06-01T08:26:34;22.70;90.20
17815;DHT22;9031;50.974;11.330;2023-06-01T08:29:00;22.80;90.60
17815;DHT22;9031;50.974;11.330;2023-06-01T08:31:26;22.90;91.00
17815;DHT22;9031;50.974;11.330;2023-06-01T08:33:52;23.00;90.40
17815;DHT22;9031;50.974;11.330;2023-06-01T08:36:19;23.10;88.20
17815;DHT22;9031;50.974;11.330;2023-06-01T08:38:45;23.10;87.30
17815;DHT22;9031;50.974;11.330;2023-06-01T08:44:04;23.40;85.80
17815;DHT22;9031;50.974;11.330;2023-06-01T08:46:33;23.70;85.50
17815;DHT22;9031;50.974;11.330;2023-06-01T08:49:00;23.70;84.50
17815;DHT22;9031;50.974;11.330;2023-06-01T08:51:26;23.60;85.50
17815;DHT22;9031;50.974;11.330;2023-06-01T08:53:53;23.70;84.80
17815;DHT22;9031;50.974;11.330;2023-06-01T08:56:19;23.80;83.20
17815;DHT22;9031;50.974;11.330;2023-06-01T08:58:47;23.70;82.00
17815;DHT22;9031;50.974;11.330;2023-06-01T09:01:20;24.20;81.50
17815;DHT22;9031;50.974;11.330;2023-06-01T09:03:51;24.80;79.80
17815;DHT22;9031;50.974;11.330;2023-06-01T09:06:17;25.10;78.80
17815;DHT22;9031;50.974;11.330;2023-06-01T09:08:44;25.20;77.10
17815;DHT22;9031;50.974;11.330;2023-06-01T09:11:10;25.40;75.70
17815;DHT22;9031;50.974;11.330;2023-06-01T09:13:40;25.20;75.50
17815;DHT22;9031;50.974;11.330;2023-06-01T09:16:06;25.50;74.20
17815;DHT22;9031;50.974;11.330;2023-06-01T09:18:32;25.20;73.80
17815;DHT22;9031;50.974;11.330;2023-06-01T09:21:12;24.60;75.90
17815;DHT22;9031;50.974;11.330;2023-06-01T09:23:37;24.40;76.20
17815;DHT22;9031;50.974;11.330;2023-06-01T09:26:12;24.50;75.70
17815;DHT22;9031;50.974;11.330;2023-06-01T09:28:57;24.50;76.50
17815;DHT22;9031;50.974;11.330;2023-06-01T09:31:40;24.00;77.80
17815;DHT22;9031;50.974;11.330;2023-06-01T09:34:08;24.00;79.00
17815;DHT22;9031;50.974;11.330;2023-06-01T09:36:34;24.40;78.50
17815;DHT22;9031;50.974;11.330;2023-06-01T09:39:05;25.30;76.50
17815;DHT22;9031;50.974;11.330;2023-06-01T09:41:54;25.10;75.50
17815;DHT22;9031;50.974;11.330;2023-06-01T09:47:01;25.40;75.00
17815;DHT22;9031;50.974;11.330;2023-06-01T09:49:28;26.10;72.20
17815;DHT22;9031;50.974;11.330;2023-06-01T09:52:15;26.30;71.60
17815;DHT22;9031;50.974;11.330;2023-06-01T09:54:49;26.80;70.20
17815;DHT22;9031;50.974;11.330;2023-06-01T09:57:25;27.70;68.40
17815;DHT22;9031;50.974;11.330;2023-06-01T09:59:51;27.70;67.20
17815;DHT22;9031;50.974;11.330;2023-06-01T10:02:22;27.70;63.80
17815;DHT22;9031;50.974;11.330;2023-06-01T10:04:49;26.90;63.40
17815;DHT22;9031;50.974;11.330;2023-06-01T10:07:17;26.60;64.10
17815;DHT22;9031;50.974;11.330;2023-06-01T10:09:46;26.20;66.90
17815;DHT22;9031;50.974;11.330;2023-06-01T10:12:13;26.40;68.10
17815;DHT22;9031;50.974;11.330;2023-06-01T10:14:39;26.90;67.90
17815;DHT22;9031;50.974;11.330;2023-06-01T10:17:05;27.00;67.10
17815;DHT22;9031;50.974;11.330;2023-06-01T10:19:31;26.70;67.30
17815;DHT22;9031;50.974;11.330;2023-06-01T10:21:59;26.30;69.10
17815;DHT22;9031;50.974;11.330;2023-06-01T10:24:26;25.60;71.70
17815;DHT22;9031;50.974;11.330;2023-06-01T10:27:01;25.90;69.20
17815;DHT22;9031;50.974;11.330;2023-06-01T10:29:31;26.40;66.00
17815;DHT22;9031;50.974;11.330;2023-06-01T10:31:57;26.90;64.40
17815;DHT22;9031;50.974;11.330;2023-06-01T10:39:34;26.60;59.70
17815;DHT22;9031;50.974;11.330;2023-06-01T10:57:40;31.70;49.30
17815;DHT22;9031;50.974;11.330;2023-06-01T11:02:51;32.00;46.40
17815;DHT22;9031;50.974;11.330;2023-06-01T11:08:51;27.90;48.60
17815;DHT22;9031;50.974;11.330;2023-06-01T11:13:28;29.10;48.80
17815;DHT22;9031;50.974;11.330;2023-06-01T11:21:27;32.20;42.00
17815;DHT22;9031;50.974;11.330;2023-06-01T11:23:57;32.40;40.60
17815;DHT22;9031;50.974;11.330;2023-06-01T11:31:41;32.60;31.50
17815;DHT22;9031;50.974;11.330;2023-06-01T11:34:08;33.00;31.60
17815;DHT22;9031;50.974;11.330;2023-06-01T11:36:39;33.00;29.80
17815;DHT22;9031;50.974;11.330;2023-06-01T11:39:05;33.10;29.70
17815;DHT22;9031;50.974;11.330;2023-06-01T11:41:35;33.40;29.80
17815;DHT22;9031;50.974;11.330;2023-06-01T11:44:02;34.20;28.20
17815;DHT22;9031;50.974;11.330;2023-06-01T11:46:27;34.30;27.80
17815;DHT22;9031;50.974;11.330;2023-06-01T11:49:11;34.10;27.80
17815;DHT22;9031;50.974;11.330;2023-06-01T11:51:39;33.70;28.90
17815;DHT22;9031;50.974;11.330;2023-06-01T11:54:06;33.40;30.00
17815;DHT22;9031;50.974;11.330;2023-06-01T11:56:35;34.30;29.70
17815;DHT22;9031;50.974;11.330;2023-06-01T11:59:03;34.90;30.30
17815;DHT22;9031;50.974;11.330;2023-06-01T12:01:42;34.60;29.70
17815;DHT22;9031;50.974;11.330;2023-06-01T12:04:20;33.20;30.30
17815;DHT22;9031;50.974;11.330;2023-06-01T12:06:46;34.10;30.00
17815;DHT22;9031;50.974;11.330;2023-06-01T12:09:13;34.50;29.20
17815;DHT22;9031;50.974;11.330;2023-06-01T12:11:40;35.60;28.00
17815;DHT22;9031;50.974;11.330;2023-06-01T12:14:08;35.90;27.40
17815;DHT22;9031;50.974;11.330;2023-06-01T12:16:54;35.70;27.20
17815;DHT22;9031;50.974;11.330;2023-06-01T12:19:21;35.80;26.40
17815;DHT22;9031;50.974;11.330;2023-06-01T12:21:51;35.20;26.90
17815;DHT22;9031;50.974;11.330;2023-06-01T12:24:25;35.40;26.60
17815;DHT22;9031;50.974;11.330;2023-06-01T12:26:52;35.10;26.30
17815;DHT22;9031;50.974;11.330;2023-06-01T12:29:37;35.10;25.50
17815;DHT22;9031;50.974;11.330;2023-06-01T12:32:04;35.20;25.60
17815;DHT22;9031;50.974;11.330;2023-06-01T12:34:29;35.60;26.20
17815;DHT22;9031;50.974;11.330;2023-06-01T12:36:55;35.40;26.50
17815;DHT22;9031;50.974;11.330;2023-06-01T12:39:33;35.00;26.90
17815;DHT22;9031;50.974;11.330;2023-06-01T12:42:02;35.40;26.70
17815;DHT22;9031;50.974;11.330;2023-06-01T12:44:28;35.20;26.70
17815;DHT22;9031;50.974;11.330;2023-06-01T12:46:57;35.20;27.20
17815;DHT22;9031;50.974;11.330;2023-06-01T12:49:24;35.30;27.70
17815;DHT22;9031;50.974;11.330;2023-06-01T12:51:49;35.00;28.10
17815;DHT22;9031;50.974;11.330;2023-06-01T12:54:15;34.60;28.50
17815;DHT22;9031;50.974;11.330;2023-06-01T12:56:42;34.00;29.50
17815;DHT22;9031;50.974;11.330;2023-06-01T12:59:08;34.50;29.10
17815;DHT22;9031;50.974;11.330;2023-06-01T13:01:34;35.50;28.80
17815;DHT22;9031;50.974;11.330;2023-06-01T13:04:02;34.90;28.80
17815;DHT22;9031;50.974;11.330;2023-06-01T13:06:31;34.50;29.00
17815;DHT22;9031;50.974;11.330;2023-06-01T13:08:57;34.50;29.80
17815;DHT22;9031;50.974;11.330;2023-06-01T13:11:23;33.90;30.40
17815;DHT22;9031;50.974;11.330;2023-06-01T13:13:49;33.90;30.80
17815;DHT22;9031;50.974;11.330;2023-06-01T13:16:15;33.90;30.80
17815;DHT22;9031;50.974;11.330;2023-06-01T13:18:40;33.40;31.80
17815;DHT22;9031;50.974;11.330;2023-06-01T13:21:06;34.20;31.30
17815;DHT22;9031;50.974;11.330;2023-06-01T13:23:32;34.10;31.50
17815;DHT22;9031;50.974;11.330;2023-06-01T13:25:58;34.80;31.00
17815;DHT22;9031;50.974;11.330;2023-06-01T13:28:24;35.50;29.80
17815;DHT22;9031;50.974;11.330;2023-06-01T13:30:50;34.50;30.10
17815;DHT22;9031;50.974;11.330;2023-06-01T13:33:15;34.70;29.80
17815;DHT22;9031;50.974;11.330;2023-06-01T13:35:41;34.70;29.00
17815;DHT22;9031;50.974;11.330;2023-06-01T13:38:07;33.30;29.40
17815;DHT22;9031;50.974;11.330;2023-06-01T13:40:33;32.10;29.80
17815;DHT22;9031;50.974;11.330;2023-06-01T13:42:59;30.60;30.00
17815;DHT22;9031;50.974;11.330;2023-06-01T13:45:25;29.70;29.80
17815;DHT22;9031;50.974;11.330;2023-06-01T13:47:50;28.70;30.50
17815;DHT22;9031;50.974;11.330;2023-06-01T13:50:17;28.90;29.90
17815;DHT22;9031;50.974;11.330;2023-06-01T13:52:43;29.80;28.80
17815;DHT22;9031;50.974;11.330;2023-06-01T13:55:09;29.00;28.40
17815;DHT22;9031;50.974;11.330;2023-06-01T13:57:35;28.20;29.60
17815;DHT22;9031;50.974;11.330;2023-06-01T14:00:01;28.80;28.30
17815;DHT22;9031;50.974;11.330;2023-06-01T14:02:27;30.10;28.00
17815;DHT22;9031;50.974;11.330;2023-06-01T14:04:52;30.90;29.20
17815;DHT22;9031;50.974;11.330;2023-06-01T14:07:18;32.10;28.60
17815;DHT22;9031;50.974;11.330;2023-06-01T14:09:44;33.20;27.80
17815;DHT22;9031;50.974;11.330;2023-06-01T14:12:09;34.10;25.50
17815;DHT22;9031;50.974;11.330;2023-06-01T14:14:35;34.50;28.10
17815;DHT22;9031;50.974;11.330;2023-06-01T14:17:00;34.30;28.10
17815;DHT22;9031;50.974;11.330;2023-06-01T14:19:26;35.20;27.40
17815;DHT22;9031;50.974;11.330;2023-06-01T14:21:52;34.90;29.40
17815;DHT22;9031;50.974;11.330;2023-06-01T14:24:18;34.30;31.80
17815;DHT22;9031;50.974;11.330;2023-06-01T14:26:43;34.30;33.30
17815;DHT22;9031;50.974;11.330;2023-06-01T14:29:09;34.00;31.70
17815;DHT22;9031;50.974;11.330;2023-06-01T14:31:34;33.80;32.10
17815;DHT22;9031;50.974;11.330;2023-06-01T14:34:00;32.40;33.00
17815;DHT22;9031;50.974;11.330;2023-06-01T14:36:26;32.70;33.50
17815;DHT22;9031;50.974;11.330;2023-06-01T14:38:51;33.10;34.00
17815;DHT22;9031;50.974;11.330;2023-06-01T14:41:17;33.20;34.20
17815;DHT22;9031;50.974;11.330;2023-06-01T14:43:42;32.90;35.40
17815;DHT22;9031;50.974;11.330;2023-06-01T14:46:08;33.10;35.10
17815;DHT22;9031;50.974;11.330;2023-06-01T14:48:33;33.30;35.10
17815;DHT22;9031;50.974;11.330;2023-06-01T14:50:59;33.70;34.90
17815;DHT22;9031;50.974;11.330;2023-06-01T14:53:24;33.70;36.00
17815;DHT22;9031;50.974;11.330;2023-06-01T14:55:50;34.00;35.30
17815;DHT22;9031;50.974;11.330;2023-06-01T14:58:15;34.10;35.70
17815;DHT22;9031;50.974;11.330;2023-06-01T15:00:41;34.30;35.50
17815;DHT22;9031;50.974;11.330;2023-06-01T15:03:07;34.30;36.00
17815;DHT22;9031;50.974;11.330;2023-06-01T15:05:35;34.00;36.20
17815;DHT22;9031;50.974;11.330;2023-06-01T15:08:01;34.00;37.00
17815;DHT22;9031;50.974;11.330;2023-06-01T15:10:26;33.00;37.80
17815;DHT22;9031;50.974;11.330;2023-06-01T15:12:53;33.60;37.30
17815;DHT22;9031;50.974;11.330;2023-06-01T15:15:18;32.90;37.20
17815;DHT22;9031;50.974;11.330;2023-06-01T15:17:44;31.60;38.10
17815;DHT22;9031;50.974;11.330;2023-06-01T15:20:10;31.10;38.30
17815;DHT22;9031;50.974;11.330;2023-06-01T15:22:36;31.40;37.50
17815;DHT22;9031;50.974;11.330;2023-06-01T15:25:02;31.30;36.20
17815;DHT22;9031;50.974;11.330;2023-06-01T15:27:28;31.80;35.30
17815;DHT22;9031;50.974;11.330;2023-06-01T15:29:53;31.80;34.50
17815;DHT22;9031;50.974;11.330;2023-06-01T15:32:19;32.20;35.00
17815;DHT22;9031;50.974;11.330;2023-06-01T15:34:44;32.00;35.60
17815;DHT22;9031;50.974;11.330;2023-06-01T15:37:11;32.30;36.30
17815;DHT22;9031;50.974;11.330;2023-06-01T15:39:37;32.00;36.90
17815;DHT22;9031;50.974;11.330;2023-06-01T15:42:08;32.30;36.80
17815;DHT22;9031;50.974;11.330;2023-06-01T15:44:41;32.00;36.40
17815;DHT22;9031;50.974;11.330;2023-06-01T15:47:08;31.90;36.20
17815;DHT22;9031;50.974;11.330;2023-06-01T15:49:34;31.60;36.50
17815;DHT22;9031;50.974;11.330;2023-06-01T15:51:59;31.90;35.80
17815;DHT22;9031;50.974;11.330;2023-06-01T15:54:26;32.10;35.30
17815;DHT22;9031;50.974;11.330;2023-06-01T15:56:52;31.60;35.00
17815;DHT22;9031;50.974;11.330;2023-06-01T15:59:17;31.70;35.60
17815;DHT22;9031;50.974;11.330;2023-06-01T16:01:43;31.20;35.70
17815;DHT22;9031;50.974;11.330;2023-06-01T16:04:09;31.50;35.10
17815;DHT22;9031;50.974;11.330;2023-06-01T16:06:34;30.90;35.60
17815;DHT22;9031;50.974;11.330;2023-06-01T16:09:00;31.00;36.20
17815;DHT22;9031;50.974;11.330;2023-06-01T16:11:27;31.00;38.00
17815;DHT22;9031;50.974;11.330;2023-06-01T16:13:52;30.90;38.70
17815;DHT22;9031;50.974;11.330;2023-06-01T16:16:18;30.70;40.80
17815;DHT22;9031;50.974;11.330;2023-06-01T16:18:44;31.00;40.90
17815;DHT22;9031;50.974;11.330;2023-06-01T16:21:10;30.90;41.70
17815;DHT22;9031;50.974;11.330;2023-06-01T16:23:36;30.50;42.40
17815;DHT22;9031;50.974;11.330;2023-06-01T16:26:01;30.00;43.10